sensor_id;sensor_type;location;lat;lon;timestamp;P1;durP1;ratioP1;P2;durP2;ratioP2
21860;SDS011;11095;48.066;8.540;2023-04-24T00:00:02;1.05;;;0.40;;
21860;SDS011;11095;48.066;8.540;2023-04-24T00:02:32;0.75;;;0.47;;
21860;SDS011;11095;48.066;8.540;2023-04-24T00:04:58;0.98;;;0.43;;
21860;SDS011;11095;48.066;8.540;2023-04-24T00:07:27;0.98;;;0.47;;
21860;SDS011;11095;48.066;8.540;2023-04-24T00:09:52;0.85;;;0.47;;
21860;SDS011;11095;48.066;8.540;2023-04-24T00:12:18;0.55;;;0.40;;
21860;SDS011;11095;48.066;8.540;2023-04-24T00:14:43;0.70;;;0.40;;
21860;SDS011;11095;48.066;8.540;2023-04-24T00:17:09;0.75;;;0.40;;
21860;SDS011;11095;48.066;8.540;2023-04-24T00:19:35;1.95;;;0.50;;
21860;SDS011;11095;48.066;8.540;2023-04-24T00:22:01;0.40;;;0.40;;
21860;SDS011;11095;48.066;8.540;2023-04-24T00:24:27;0.95;;;0.47;;
21860;SDS011;11095;48.066;8.540;2023-04-24T00:26:53;1.05;;;0.50;;
21860;SDS011;11095;48.066;8.540;2023-04-24T00:29:19;0.57;;;0.40;;
21860;SDS011;11095;48.066;8.540;2023-04-24T00:31:44;0.60;;;0.50;;
21860;SDS011;11095;48.066;8.540;2023-04-24T00:34:10;0.75;;;0.40;;
21860;SDS011;11095;48.066;8.540;2023-04-24T00:36:37;0.88;;;0.50;;
21860;SDS011;11095;48.066;8.540;2023-04-24T00:39:03;0.60;;;0.60;;
21860;SDS011;11095;48.066;8.540;2023-04-24T00:41:28;0.47;;;0.40;;
21860;SDS011;11095;48.066;8.540;2023-04-24T00:43:55;0.98;;;0.50;;
21860;SDS011;11095;48.066;8.540;2023-04-24T00:46:21;1.42;;;0.52;;
21860;SDS011;11095;48.066;8.540;2023-04-24T00:48:46;0.90;;;0.70;;
21860;SDS011;11095;48.066;8.540;2023-04-24T00:51:12;1.42;;;0.50;;
21860;SDS011;11095;48.066;8.540;2023-04-24T00:53:38;1.10;;;0.60;;
21860;SDS011;11095;48.066;8.540;2023-04-24T00:56:03;1.30;;;0.50;;
21860;SDS011;11095;48.066;8.540;2023-04-24T00:58:30;2.50;;;0.60;;
21860;SDS011;11095;48.066;8.540;2023-04-24T01:00:56;1.35;;;0.60;;
21860;SDS011;11095;48.066;8.540;2023-04-24T01:03:24;2.58;;;0.70;;
21860;SDS011;11095;48.066;8.540;2023-04-24T01:05:53;1.02;;;0.55;;
21860;SDS011;11095;48.066;8.540;2023-04-24T01:08:20;0.90;;;0.60;;
21860;SDS011;11095;48.066;8.540;2023-04-24T01:10:48;1.70;;;0.60;;
21860;SDS011;11095;48.066;8.540;2023-04-24T01:15:45;1.27;;;0.60;;
21860;SDS011;11095;48.066;8.540;2023-04-24T01:18:11;0.93;;;0.60;;
21860;SDS011;11095;48.066;8.540;2023-04-24T01:20:37;1.73;;;0.70;;
21860;SDS011;11095;48.066;8.540;2023-04-24T01:23:07;1.48;;;0.60;;
21860;SDS011;11095;48.066;8.540;2023-04-24T01:25:33;1.95;;;0.85;;
21860;SDS011;11095;48.066;8.540;2023-04-24T01:27:59;1.17;;;0.70;;
21860;SDS011;11095;48.066;8.540;2023-04-24T01:30:26;1.15;;;0.65;;
21860;SDS011;11095;48.066;8.540;2023-04-24T01:32:52;0.75;;;0.75;;
21860;SDS011;11095;48.066;8.540;2023-04-24T01:35:18;1.35;;;0.90;;
21860;SDS011;11095;48.066;8.540;2023-04-24T01:37:45;1.63;;;0.80;;
21860;SDS011;11095;48.066;8.540;2023-04-24T01:40:10;0.95;;;0.80;;
21860;SDS011;11095;48.066;8.540;2023-04-24T01:42:36;1.50;;;0.90;;
21860;SDS011;11095;48.066;8.540;2023-04-24T01:45:02;1.00;;;0.85;;
21860;SDS011;11095;48.066;8.540;2023-04-24T01:47:30;1.52;;;0.85;;
21860;SDS011;11095;48.066;8.540;2023-04-24T01:49:56;1.42;;;1.00;;
21860;SDS011;11095;48.066;8.540;2023-04-24T01:52:22;1.85;;;0.88;;
21860;SDS011;11095;48.066;8.540;2023-04-24T01:54:49;1.50;;;0.90;;
21860;SDS011;11095;48.066;8.540;2023-04-24T01:57:14;1.33;;;1.00;;
21860;SDS011;11095;48.066;8.540;2023-04-24T01:59:41;1.27;;;1.00;;
21860;SDS011;11095;48.066;8.540;2023-04-24T02:02:07;4.05;;;1.35;;
21860;SDS011;11095;48.066;8.540;2023-04-24T02:04:33;1.20;;;1.00;;
21860;SDS011;11095;48.066;8.540;2023-04-24T02:06:58;1.13;;;0.80;;
21860;SDS011;11095;48.066;8.540;2023-04-24T02:09:24;1.23;;;0.90;;
21860;SDS011;11095;48.066;8.540;2023-04-24T02:11:50;3.15;;;1.10;;
21860;SDS011;11095;48.066;8.540;2023-04-24T02:14:15;2.03;;;1.00;;
21860;SDS011;11095;48.066;8.540;2023-04-24T02:16:41;2.33;;;1.25;;
21860;SDS011;11095;48.066;8.540;2023-04-24T02:19:07;2.17;;;1.13;;
21860;SDS011;11095;48.066;8.540;2023-04-24T02:21:33;2.40;;;1.20;;
21860;SDS011;11095;48.066;8.540;2023-04-24T02:23:59;2.72;;;1.30;;
21860;SDS011;11095;48.066;8.540;2023-04-24T02:26:25;1.23;;;1.10;;
21860;SDS011;11095;48.066;8.540;2023-04-24T02:28:51;2.15;;;1.40;;
21860;SDS011;11095;48.066;8.540;2023-04-24T02:31:16;2.22;;;1.20;;
21860;SDS011;11095;48.066;8.540;2023-04-24T02:33:42;1.45;;;1.10;;
21860;SDS011;11095;48.066;8.540;2023-04-24T02:36:07;1.95;;;1.35;;
21860;SDS011;11095;48.066;8.540;2023-04-24T02:38:33;2.17;;;1.20;;
21860;SDS011;11095;48.066;8.540;2023-04-24T02:40:59;1.42;;;1.10;;
21860;SDS011;11095;48.066;8.540;2023-04-24T02:43:26;2.75;;;1.02;;
21860;SDS011;11095;48.066;8.540;2023-04-24T02:45:52;1.88;;;1.20;;
21860;SDS011;11095;48.066;8.540;2023-04-24T02:48:18;1.70;;;1.15;;
21860;SDS011;11095;48.066;8.540;2023-04-24T02:50:45;2.65;;;1.42;;
21860;SDS011;11095;48.066;8.540;2023-04-24T02:53:11;1.60;;;1.15;;
21860;SDS011;11095;48.066;8.540;2023-04-24T02:55:37;1.63;;;1.10;;
21860;SDS011;11095;48.066;8.540;2023-04-24T02:58:02;1.58;;;1.17;;
21860;SDS011;11095;48.066;8.540;2023-04-24T03:00:28;1.73;;;1.13;;
21860;SDS011;11095;48.066;8.540;2023-04-24T03:02:54;1.55;;;1.08;;
21860;SDS011;11095;48.066;8.540;2023-04-24T03:05:19;1.73;;;1.20;;
21860;SDS011;11095;48.066;8.540;2023-04-24T03:07:45;1.40;;;1.25;;
21860;SDS011;11095;48.066;8.540;2023-04-24T03:10:11;2.05;;;1.10;;
21860;SDS011;11095;48.066;8.540;2023-04-24T03:12:36;1.23;;;1.02;;
21860;SDS011;11095;48.066;8.540;2023-04-24T03:15:02;1.70;;;1.10;;
21860;SDS011;11095;48.066;8.540;2023-04-24T03:17:28;1.98;;;1.25;;
21860;SDS011;11095;48.066;8.540;2023-04-24T03:19:53;1.08;;;0.93;;
21860;SDS011;11095;48.066;8.540;2023-04-24T03:22:19;2.15;;;0.90;;
21860;SDS011;11095;48.066;8.540;2023-04-24T03:24:45;1.77;;;1.20;;
21860;SDS011;11095;48.066;8.540;2023-04-24T03:27:10;1.83;;;1.00;;
21860;SDS011;11095;48.066;8.540;2023-04-24T03:29:36;1.50;;;0.98;;
21860;SDS011;11095;48.066;8.540;2023-04-24T03:32:02;1.63;;;1.00;;
21860;SDS011;11095;48.066;8.540;2023-04-24T03:34:27;2.15;;;1.20;;
21860;SDS011;11095;48.066;8.540;2023-04-24T03:36:53;1.40;;;1.30;;
21860;SDS011;11095;48.066;8.540;2023-04-24T03:39:18;2.92;;;1.42;;
21860;SDS011;11095;48.066;8.540;2023-04-24T03:41:44;2.92;;;1.40;;
21860;SDS011;11095;48.066;8.540;2023-04-24T03:44:10;2.22;;;1.55;;
21860;SDS011;11095;48.066;8.540;2023-04-24T03:46:35;2.08;;;1.60;;
21860;SDS011;11095;48.066;8.540;2023-04-24T03:49:01;2.03;;;1.60;;
21860;SDS011;11095;48.066;8.540;2023-04-24T03:51:27;2.47;;;1.70;;
21860;SDS011;11095;48.066;8.540;2023-04-24T03:53:53;1.98;;;1.45;;
21860;SDS011;11095;48.066;8.540;2023-04-24T03:56:18;3.88;;;1.63;;
21860;SDS011;11095;48.066;8.540;2023-04-24T03:58:45;4.18;;;1.70;;
21860;SDS011;11095;48.066;8.540;2023-04-24T04:01:11;4.07;;;1.85;;
21860;SDS011;11095;48.066;8.540;2023-04-24T04:03:37;2.53;;;1.90;;
21860;SDS011;11095;48.066;8.540;2023-04-24T04:06:02;4.18;;;2.40;;
21860;SDS011;11095;48.066;8.540;2023-04-24T04:08:28;3.72;;;2.33;;
21860;SDS011;11095;48.066;8.540;2023-04-24T04:10:54;4.22;;;3.15;;
21860;SDS011;11095;48.066;8.540;2023-04-24T04:13:20;3.78;;;2.80;;
21860;SDS011;11095;48.066;8.540;2023-04-24T04:15:45;3.35;;;2.80;;
21860;SDS011;11095;48.066;8.540;2023-04-24T04:18:11;3.78;;;3.15;;
21860;SDS011;11095;48.066;8.540;2023-04-24T04:20:37;4.10;;;3.25;;
21860;SDS011;11095;48.066;8.540;2023-04-24T04:23:02;4.90;;;3.28;;
21860;SDS011;11095;48.066;8.540;2023-04-24T04:25:28;3.47;;;3.17;;
21860;SDS011;11095;48.066;8.540;2023-04-24T04:27:54;3.90;;;3.50;;
21860;SDS011;11095;48.066;8.540;2023-04-24T04:30:20;3.63;;;3.28;;
21860;SDS011;11095;48.066;8.540;2023-04-24T04:32:45;3.55;;;3.10;;
21860;SDS011;11095;48.066;8.540;2023-04-24T04:35:12;6.43;;;3.47;;
21860;SDS011;11095;48.066;8.540;2023-04-24T04:37:37;4.28;;;3.13;;
21860;SDS011;11095;48.066;8.540;2023-04-24T04:40:03;4.03;;;2.70;;
21860;SDS011;11095;48.066;8.540;2023-04-24T04:42:32;3.27;;;2.70;;
21860;SDS011;11095;48.066;8.540;2023-04-24T04:45:01;3.25;;;2.30;;
21860;SDS011;11095;48.066;8.540;2023-04-24T04:47:27;2.95;;;2.17;;
21860;SDS011;11095;48.066;8.540;2023-04-24T04:49:53;2.30;;;2.10;;
21860;SDS011;11095;48.066;8.540;2023-04-24T04:52:19;2.05;;;1.70;;
21860;SDS011;11095;48.066;8.540;2023-04-24T04:54:49;3.45;;;1.83;;
21860;SDS011;11095;48.066;8.540;2023-04-24T04:57:15;2.33;;;2.00;;
21860;SDS011;11095;48.066;8.540;2023-04-24T04:59:41;2.63;;;1.20;;
21860;SDS011;11095;48.066;8.540;2023-04-24T05:02:07;1.50;;;1.10;;
21860;SDS011;11095;48.066;8.540;2023-04-24T05:04:32;1.70;;;0.95;;
21860;SDS011;11095;48.066;8.540;2023-04-24T05:06:58;1.52;;;1.10;;
21860;SDS011;11095;48.066;8.540;2023-04-24T05:09:24;1.30;;;1.00;;
21860;SDS011;11095;48.066;8.540;2023-04-24T05:11:52;1.40;;;1.10;;
21860;SDS011;11095;48.066;8.540;2023-04-24T05:14:18;2.08;;;0.93;;
21860;SDS011;11095;48.066;8.540;2023-04-24T05:16:44;1.17;;;1.00;;
21860;SDS011;11095;48.066;8.540;2023-04-24T05:19:10;1.67;;;1.10;;
21860;SDS011;11095;48.066;8.540;2023-04-24T05:21:37;1.95;;;1.20;;
21860;SDS011;11095;48.066;8.540;2023-04-24T05:24:04;2.80;;;1.30;;
21860;SDS011;11095;48.066;8.540;2023-04-24T05:26:30;1.48;;;1.00;;
21860;SDS011;11095;48.066;8.540;2023-04-24T05:28:56;1.90;;;1.23;;
21860;SDS011;11095;48.066;8.540;2023-04-24T05:31:21;1.40;;;1.30;;
21860;SDS011;11095;48.066;8.540;2023-04-24T05:33:47;2.00;;;1.38;;
21860;SDS011;11095;48.066;8.540;2023-04-24T05:36:13;1.75;;;1.63;;
21860;SDS011;11095;48.066;8.540;2023-04-24T05:38:38;1.75;;;1.45;;
21860;SDS011;11095;48.066;8.540;2023-04-24T05:41:04;1.50;;;1.40;;
21860;SDS011;11095;48.066;8.540;2023-04-24T05:43:33;2.70;;;1.92;;
21860;SDS011;11095;48.066;8.540;2023-04-24T05:45:58;3.03;;;1.63;;
21860;SDS011;11095;48.066;8.540;2023-04-24T05:48:24;2.10;;;1.45;;
21860;SDS011;11095;48.066;8.540;2023-04-24T05:50:50;1.70;;;1.60;;
21860;SDS011;11095;48.066;8.540;2023-04-24T05:53:17;1.77;;;1.60;;
21860;SDS011;11095;48.066;8.540;2023-04-24T05:55:43;1.90;;;1.60;;
21860;SDS011;11095;48.066;8.540;2023-04-24T05:58:12;3.50;;;1.60;;
21860;SDS011;11095;48.066;8.540;2023-04-24T06:00:38;1.52;;;1.42;;
21860;SDS011;11095;48.066;8.540;2023-04-24T06:03:07;1.30;;;1.20;;
21860;SDS011;11095;48.066;8.540;2023-04-24T06:05:33;2.05;;;1.35;;
21860;SDS011;11095;48.066;8.540;2023-04-24T06:07:59;2.35;;;1.48;;
21860;SDS011;11095;48.066;8.540;2023-04-24T06:10:25;2.05;;;1.42;;
21860;SDS011;11095;48.066;8.540;2023-04-24T06:12:51;1.40;;;1.30;;
21860;SDS011;11095;48.066;8.540;2023-04-24T06:15:16;2.05;;;1.30;;
21860;SDS011;11095;48.066;8.540;2023-04-24T06:17:42;1.38;;;1.20;;
21860;SDS011;11095;48.066;8.540;2023-04-24T06:20:08;1.48;;;1.27;;
21860;SDS011;11095;48.066;8.540;2023-04-24T06:22:35;3.20;;;1.17;;
21860;SDS011;11095;48.066;8.540;2023-04-24T06:25:01;1.30;;;0.90;;
21860;SDS011;11095;48.066;8.540;2023-04-24T06:27:27;1.15;;;0.90;;
21860;SDS011;11095;48.066;8.540;2023-04-24T06:29:52;1.20;;;1.10;;
21860;SDS011;11095;48.066;8.540;2023-04-24T06:32:22;1.77;;;1.17;;
21860;SDS011;11095;48.066;8.540;2023-04-24T06:34:49;2.47;;;1.15;;
21860;SDS011;11095;48.066;8.540;2023-04-24T06:37:16;1.15;;;1.05;;
21860;SDS011;11095;48.066;8.540;2023-04-24T06:39:42;1.38;;;1.10;;
21860;SDS011;11095;48.066;8.540;2023-04-24T06:42:07;1.70;;;1.30;;
21860;SDS011;11095;48.066;8.540;2023-04-24T06:44:34;1.10;;;1.00;;
21860;SDS011;11095;48.066;8.540;2023-04-24T06:47:05;1.30;;;1.10;;
21860;SDS011;11095;48.066;8.540;2023-04-24T06:49:35;2.25;;;1.00;;
21860;SDS011;11095;48.066;8.540;2023-04-24T06:54:31;1.73;;;1.00;;
21860;SDS011;11095;48.066;8.540;2023-04-24T06:56:57;1.25;;;0.85;;
21860;SDS011;11095;48.066;8.540;2023-04-24T06:59:26;1.67;;;1.00;;
21860;SDS011;11095;48.066;8.540;2023-04-24T07:01:52;1.02;;;0.70;;
21860;SDS011;11095;48.066;8.540;2023-04-24T07:04:18;2.13;;;0.90;;
21860;SDS011;11095;48.066;8.540;2023-04-24T07:06:47;0.82;;;0.80;;
21860;SDS011;11095;48.066;8.540;2023-04-24T07:09:16;1.08;;;0.85;;
21860;SDS011;11095;48.066;8.540;2023-04-24T07:11:43;1.95;;;1.00;;
21860;SDS011;11095;48.066;8.540;2023-04-24T07:14:09;2.00;;;0.90;;
21860;SDS011;11095;48.066;8.540;2023-04-24T07:16:35;1.08;;;0.88;;
21860;SDS011;11095;48.066;8.540;2023-04-24T07:19:01;2.22;;;1.00;;
21860;SDS011;11095;48.066;8.540;2023-04-24T07:21:26;2.28;;;1.00;;
21860;SDS011;11095;48.066;8.540;2023-04-24T07:23:52;1.55;;;1.00;;
21860;SDS011;11095;48.066;8.540;2023-04-24T07:26:19;1.67;;;1.00;;
21860;SDS011;11095;48.066;8.540;2023-04-24T07:28:45;1.73;;;1.10;;
21860;SDS011;11095;48.066;8.540;2023-04-24T07:31:11;1.88;;;1.10;;
21860;SDS011;11095;48.066;8.540;2023-04-24T07:33:37;2.35;;;1.35;;
21860;SDS011;11095;48.066;8.540;2023-04-24T07:36:03;3.05;;;1.20;;
21860;SDS011;11095;48.066;8.540;2023-04-24T07:38:29;2.38;;;1.50;;
21860;SDS011;11095;48.066;8.540;2023-04-24T07:40:56;2.38;;;1.33;;
21860;SDS011;11095;48.066;8.540;2023-04-24T07:43:21;1.65;;;1.55;;
21860;SDS011;11095;48.066;8.540;2023-04-24T07:45:48;2.45;;;1.55;;
21860;SDS011;11095;48.066;8.540;2023-04-24T07:48:17;2.10;;;1.52;;
21860;SDS011;11095;48.066;8.540;2023-04-24T07:50:43;3.80;;;1.33;;
21860;SDS011;11095;48.066;8.540;2023-04-24T07:53:09;1.50;;;1.20;;
21860;SDS011;11095;48.066;8.540;2023-04-24T07:55:35;2.08;;;1.50;;
21860;SDS011;11095;48.066;8.540;2023-04-24T07:58:01;2.90;;;1.45;;
21860;SDS011;11095;48.066;8.540;2023-04-24T08:00:27;3.05;;;1.23;;
21860;SDS011;11095;48.066;8.540;2023-04-24T08:02:52;1.77;;;1.23;;
21860;SDS011;11095;48.066;8.540;2023-04-24T08:05:18;2.33;;;1.38;;
21860;SDS011;11095;48.066;8.540;2023-04-24T08:07:45;1.75;;;1.30;;
21860;SDS011;11095;48.066;8.540;2023-04-24T08:10:13;1.73;;;1.20;;
21860;SDS011;11095;48.066;8.540;2023-04-24T08:12:39;2.45;;;1.08;;
21860;SDS011;11095;48.066;8.540;2023-04-24T08:15:05;1.80;;;1.10;;
21860;SDS011;11095;48.066;8.540;2023-04-24T08:17:31;2.15;;;1.10;;
21860;SDS011;11095;48.066;8.540;2023-04-24T08:19:57;2.67;;;1.05;;
21860;SDS011;11095;48.066;8.540;2023-04-24T08:22:26;1.43;;;1.00;;
21860;SDS011;11095;48.066;8.540;2023-04-24T08:24:52;1.52;;;1.00;;
21860;SDS011;11095;48.066;8.540;2023-04-24T08:27:18;1.70;;;1.15;;
21860;SDS011;11095;48.066;8.540;2023-04-24T08:29:44;1.58;;;1.13;;
21860;SDS011;11095;48.066;8.540;2023-04-24T08:32:10;1.83;;;1.25;;
21860;SDS011;11095;48.066;8.540;2023-04-24T08:34:35;1.88;;;1.40;;
21860;SDS011;11095;48.066;8.540;2023-04-24T08:37:01;1.50;;;1.40;;
21860;SDS011;11095;48.066;8.540;2023-04-24T08:39:28;2.80;;;1.33;;
21860;SDS011;11095;48.066;8.540;2023-04-24T08:41:54;1.63;;;1.30;;
21860;SDS011;11095;48.066;8.540;2023-04-24T08:44:20;1.63;;;1.13;;
21860;SDS011;11095;48.066;8.540;2023-04-24T08:46:47;1.67;;;1.15;;
21860;SDS011;11095;48.066;8.540;2023-04-24T08:49:14;2.55;;;1.50;;
21860;SDS011;11095;48.066;8.540;2023-04-24T08:51:43;1.88;;;1.30;;
21860;SDS011;11095;48.066;8.540;2023-04-24T08:54:10;3.17;;;1.40;;
21860;SDS011;11095;48.066;8.540;2023-04-24T08:56:37;1.88;;;1.35;;
21860;SDS011;11095;48.066;8.540;2023-04-24T08:59:05;4.70;;;1.50;;
21860;SDS011;11095;48.066;8.540;2023-04-24T09:01:32;2.92;;;1.40;;
21860;SDS011;11095;48.066;8.540;2023-04-24T09:04:00;1.88;;;1.30;;
21860;SDS011;11095;48.066;8.540;2023-04-24T09:06:30;1.85;;;1.55;;
21860;SDS011;11095;48.066;8.540;2023-04-24T09:08:57;1.40;;;1.30;;
21860;SDS011;11095;48.066;8.540;2023-04-24T09:11:29;1.83;;;1.45;;
21860;SDS011;11095;48.066;8.540;2023-04-24T09:13:57;2.35;;;1.50;;
21860;SDS011;11095;48.066;8.540;2023-04-24T09:16:24;1.80;;;1.40;;
21860;SDS011;11095;48.066;8.540;2023-04-24T09:18:51;3.42;;;1.52;;
21860;SDS011;11095;48.066;8.540;2023-04-24T09:21:17;3.63;;;1.67;;
21860;SDS011;11095;48.066;8.540;2023-04-24T09:23:45;2.88;;;1.40;;
21860;SDS011;11095;48.066;8.540;2023-04-24T09:26:11;1.67;;;1.50;;
21860;SDS011;11095;48.066;8.540;2023-04-24T09:28:38;4.00;;;1.80;;
21860;SDS011;11095;48.066;8.540;2023-04-24T09:33:34;1.58;;;1.48;;
21860;SDS011;11095;48.066;8.540;2023-04-24T09:36:01;3.08;;;1.55;;
21860;SDS011;11095;48.066;8.540;2023-04-24T09:38:31;2.70;;;1.70;;
21860;SDS011;11095;48.066;8.540;2023-04-24T09:41:04;3.45;;;1.70;;
21860;SDS011;11095;48.066;8.540;2023-04-24T09:43:32;2.85;;;1.67;;
21860;SDS011;11095;48.066;8.540;2023-04-24T09:45:58;3.17;;;2.00;;
21860;SDS011;11095;48.066;8.540;2023-04-24T09:48:35;1.77;;;1.48;;
21860;SDS011;11095;48.066;8.540;2023-04-24T09:51:02;2.53;;;1.70;;
21860;SDS011;11095;48.066;8.540;2023-04-24T09:53:30;5.85;;;1.85;;
21860;SDS011;11095;48.066;8.540;2023-04-24T09:55:56;2.90;;;1.70;;
21860;SDS011;11095;48.066;8.540;2023-04-24T09:58:28;2.53;;;1.60;;
21860;SDS011;11095;48.066;8.540;2023-04-24T10:00:55;3.55;;;1.65;;
21860;SDS011;11095;48.066;8.540;2023-04-24T10:03:23;2.30;;;1.60;;
21860;SDS011;11095;48.066;8.540;2023-04-24T10:05:51;2.22;;;1.55;;
21860;SDS011;11095;48.066;8.540;2023-04-24T10:08:17;1.58;;;1.20;;
21860;SDS011;11095;48.066;8.540;2023-04-24T10:10:43;2.25;;;1.50;;
21860;SDS011;11095;48.066;8.540;2023-04-24T10:13:11;2.00;;;1.40;;
21860;SDS011;11095;48.066;8.540;2023-04-24T10:15:38;2.92;;;1.40;;
21860;SDS011;11095;48.066;8.540;2023-04-24T10:18:05;2.92;;;1.50;;
21860;SDS011;11095;48.066;8.540;2023-04-24T10:20:32;2.50;;;1.40;;
21860;SDS011;11095;48.066;8.540;2023-04-24T10:22:59;2.70;;;1.58;;
21860;SDS011;11095;48.066;8.540;2023-04-24T10:25:27;3.28;;;1.52;;
21860;SDS011;11095;48.066;8.540;2023-04-24T10:27:57;2.40;;;1.90;;
21860;SDS011;11095;48.066;8.540;2023-04-24T10:30:25;2.55;;;1.70;;
21860;SDS011;11095;48.066;8.540;2023-04-24T10:32:52;2.42;;;1.50;;
21860;SDS011;11095;48.066;8.540;2023-04-24T10:35:18;2.92;;;1.60;;
21860;SDS011;11095;48.066;8.540;2023-04-24T10:37:51;3.20;;;1.40;;
21860;SDS011;11095;48.066;8.540;2023-04-24T10:40:18;2.35;;;1.38;;
21860;SDS011;11095;48.066;8.540;2023-04-24T10:42:51;1.90;;;1.45;;
21860;SDS011;11095;48.066;8.540;2023-04-24T10:45:21;1.95;;;1.30;;
21860;SDS011;11095;48.066;8.540;2023-04-24T10:47:57;2.78;;;1.45;;
21860;SDS011;11095;48.066;8.540;2023-04-24T10:50:26;3.38;;;1.30;;
21860;SDS011;11095;48.066;8.540;2023-04-24T10:52:55;2.90;;;1.45;;
21860;SDS011;11095;48.066;8.540;2023-04-24T10:55:56;4.03;;;1.50;;
21860;SDS011;11095;48.066;8.540;2023-04-24T10:58:22;3.22;;;1.40;;
21860;SDS011;11095;48.066;8.540;2023-04-24T11:00:58;2.97;;;1.40;;
21860;SDS011;11095;48.066;8.540;2023-04-24T11:03:31;1.92;;;1.20;;
21860;SDS011;11095;48.066;8.540;2023-04-24T11:08:30;1.50;;;1.08;;
21860;SDS011;11095;48.066;8.540;2023-04-24T11:11:14;2.40;;;1.00;;
21860;SDS011;11095;48.066;8.540;2023-04-24T11:19:02;1.10;;;0.90;;
21860;SDS011;11095;48.066;8.540;2023-04-24T11:26:57;1.63;;;1.00;;
21860;SDS011;11095;48.066;8.540;2023-04-24T11:29:39;1.70;;;1.10;;
21860;SDS011;11095;48.066;8.540;2023-04-24T11:34:47;1.63;;;1.00;;
21860;SDS011;11095;48.066;8.540;2023-04-24T11:37:14;1.77;;;1.05;;
21860;SDS011;11095;48.066;8.540;2023-04-24T11:39:40;2.35;;;1.00;;
21860;SDS011;11095;48.066;8.540;2023-04-24T11:42:06;1.52;;;1.00;;
21860;SDS011;11095;48.066;8.540;2023-04-24T11:44:34;0.80;;;0.80;;
21860;SDS011;11095;48.066;8.540;2023-04-24T11:47:02;2.95;;;1.10;;
21860;SDS011;11095;48.066;8.540;2023-04-24T11:52:05;1.73;;;0.77;;
21860;SDS011;11095;48.066;8.540;2023-04-24T11:54:31;1.65;;;1.30;;
21860;SDS011;11095;48.066;8.540;2023-04-24T11:56:57;1.60;;;1.10;;
21860;SDS011;11095;48.066;8.540;2023-04-24T11:59:23;1.75;;;1.23;;
21860;SDS011;11095;48.066;8.540;2023-04-24T12:01:49;1.50;;;1.00;;
21860;SDS011;11095;48.066;8.540;2023-04-24T12:04:16;1.05;;;0.88;;
21860;SDS011;11095;48.066;8.540;2023-04-24T12:07:01;1.08;;;0.90;;
21860;SDS011;11095;48.066;8.540;2023-04-24T12:12:03;1.35;;;0.98;;
21860;SDS011;11095;48.066;8.540;2023-04-24T12:14:59;2.30;;;0.90;;
21860;SDS011;11095;48.066;8.540;2023-04-24T12:17:40;1.55;;;1.27;;
21860;SDS011;11095;48.066;8.540;2023-04-24T12:20:10;1.20;;;1.10;;
21860;SDS011;11095;48.066;8.540;2023-04-24T12:22:46;1.92;;;1.10;;
21860;SDS011;11095;48.066;8.540;2023-04-24T12:25:35;1.10;;;1.00;;
21860;SDS011;11095;48.066;8.540;2023-04-24T12:28:12;1.45;;;1.00;;
21860;SDS011;11095;48.066;8.540;2023-04-24T12:30:44;1.67;;;1.00;;
21860;SDS011;11095;48.066;8.540;2023-04-24T12:33:22;2.00;;;1.02;;
21860;SDS011;11095;48.066;8.540;2023-04-24T12:35:59;2.70;;;1.20;;
21860;SDS011;11095;48.066;8.540;2023-04-24T12:38:29;2.50;;;1.00;;
21860;SDS011;11095;48.066;8.540;2023-04-24T12:41:06;2.15;;;0.90;;
21860;SDS011;11095;48.066;8.540;2023-04-24T12:44:00;1.80;;;1.10;;
21860;SDS011;11095;48.066;8.540;2023-04-24T12:46:25;1.60;;;0.90;;
21860;SDS011;11095;48.066;8.540;2023-04-24T12:48:55;1.17;;;0.90;;
21860;SDS011;11095;48.066;8.540;2023-04-24T12:51:26;1.35;;;1.20;;
21860;SDS011;11095;48.066;8.540;2023-04-24T12:53:58;1.92;;;1.00;;
21860;SDS011;11095;48.066;8.540;2023-04-24T12:56:26;3.28;;;1.13;;
21860;SDS011;11095;48.066;8.540;2023-04-24T12:58:55;2.42;;;1.17;;
21860;SDS011;11095;48.066;8.540;2023-04-24T13:01:21;1.83;;;1.02;;
21860;SDS011;11095;48.066;8.540;2023-04-24T13:03:47;1.48;;;1.00;;
21860;SDS011;11095;48.066;8.540;2023-04-24T13:06:12;3.22;;;1.40;;
21860;SDS011;11095;48.066;8.540;2023-04-24T13:08:38;2.22;;;1.20;;
21860;SDS011;11095;48.066;8.540;2023-04-24T13:11:03;2.22;;;1.40;;
21860;SDS011;11095;48.066;8.540;2023-04-24T13:13:29;1.77;;;1.00;;
21860;SDS011;11095;48.066;8.540;2023-04-24T13:15:55;2.40;;;1.17;;
21860;SDS011;11095;48.066;8.540;2023-04-24T13:18:21;1.88;;;1.00;;
21860;SDS011;11095;48.066;8.540;2023-04-24T13:20:46;1.90;;;0.90;;
21860;SDS011;11095;48.066;8.540;2023-04-24T13:23:12;1.77;;;1.08;;
21860;SDS011;11095;48.066;8.540;2023-04-24T13:25:38;1.88;;;1.02;;
21860;SDS011;11095;48.066;8.540;2023-04-24T13:28:04;1.13;;;1.00;;
21860;SDS011;11095;48.066;8.540;2023-04-24T13:30:29;2.15;;;1.10;;
21860;SDS011;11095;48.066;8.540;2023-04-24T13:32:59;2.78;;;1.15;;
21860;SDS011;11095;48.066;8.540;2023-04-24T13:35:28;1.75;;;1.30;;
21860;SDS011;11095;48.066;8.540;2023-04-24T13:37:54;1.50;;;1.20;;
21860;SDS011;11095;48.066;8.540;2023-04-24T13:40:20;2.95;;;1.20;;
21860;SDS011;11095;48.066;8.540;2023-04-24T13:42:45;3.13;;;1.23;;
21860;SDS011;11095;48.066;8.540;2023-04-24T13:45:11;3.05;;;1.17;;
21860;SDS011;11095;48.066;8.540;2023-04-24T13:47:37;2.47;;;1.33;;
21860;SDS011;11095;48.066;8.540;2023-04-24T13:50:06;2.10;;;1.50;;
21860;SDS011;11095;48.066;8.540;2023-04-24T13:52:33;2.28;;;1.35;;
21860;SDS011;11095;48.066;8.540;2023-04-24T13:54:59;2.47;;;1.30;;
21860;SDS011;11095;48.066;8.540;2023-04-24T13:57:24;2.90;;;1.23;;
21860;SDS011;11095;48.066;8.540;2023-04-24T13:59:50;1.23;;;1.05;;
21860;SDS011;11095;48.066;8.540;2023-04-24T14:02:16;2.72;;;1.17;;
21860;SDS011;11095;48.066;8.540;2023-04-24T14:04:41;2.90;;;1.30;;
21860;SDS011;11095;48.066;8.540;2023-04-24T14:07:07;2.35;;;1.42;;
21860;SDS011;11095;48.066;8.540;2023-04-24T14:09:33;2.80;;;1.30;;
21860;SDS011;11095;48.066;8.540;2023-04-24T14:11:59;3.20;;;1.50;;
21860;SDS011;11095;48.066;8.540;2023-04-24T14:14:26;2.45;;;1.35;;
21860;SDS011;11095;48.066;8.540;2023-04-24T14:16:52;1.80;;;1.30;;
21860;SDS011;11095;48.066;8.540;2023-04-24T14:19:18;2.25;;;1.40;;
21860;SDS011;11095;48.066;8.540;2023-04-24T14:21:43;1.80;;;1.50;;
21860;SDS011;11095;48.066;8.540;2023-04-24T14:24:09;3.00;;;1.40;;
21860;SDS011;11095;48.066;8.540;2023-04-24T14:26:35;2.00;;;1.52;;
21860;SDS011;11095;48.066;8.540;2023-04-24T14:29:00;2.78;;;1.67;;
21860;SDS011;11095;48.066;8.540;2023-04-24T14:31:26;1.50;;;1.40;;
21860;SDS011;11095;48.066;8.540;2023-04-24T14:33:52;3.45;;;1.60;;
21860;SDS011;11095;48.066;8.540;2023-04-24T14:36:18;2.83;;;1.60;;
21860;SDS011;11095;48.066;8.540;2023-04-24T14:38:44;3.00;;;1.92;;
21860;SDS011;11095;48.066;8.540;2023-04-24T14:41:09;2.35;;;1.70;;
21860;SDS011;11095;48.066;8.540;2023-04-24T14:43:36;3.58;;;1.58;;
21860;SDS011;11095;48.066;8.540;2023-04-24T14:46:02;3.08;;;1.65;;
21860;SDS011;11095;48.066;8.540;2023-04-24T14:48:29;2.42;;;1.40;;
21860;SDS011;11095;48.066;8.540;2023-04-24T14:50:55;2.38;;;1.80;;
21860;SDS011;11095;48.066;8.540;2023-04-24T14:53:21;3.55;;;1.70;;
21860;SDS011;11095;48.066;8.540;2023-04-24T14:55:46;3.30;;;1.80;;
21860;SDS011;11095;48.066;8.540;2023-04-24T14:58:12;1.73;;;1.50;;
21860;SDS011;11095;48.066;8.540;2023-04-24T15:00:38;3.40;;;1.80;;
21860;SDS011;11095;48.066;8.540;2023-04-24T15:03:04;2.00;;;1.60;;
21860;SDS011;11095;48.066;8.540;2023-04-24T15:05:29;2.10;;;1.50;;
21860;SDS011;11095;48.066;8.540;2023-04-24T15:07:55;2.13;;;1.60;;
21860;SDS011;11095;48.066;8.540;2023-04-24T15:10:21;2.58;;;1.60;;
21860;SDS011;11095;48.066;8.540;2023-04-24T15:12:48;2.45;;;1.52;;
21860;SDS011;11095;48.066;8.540;2023-04-24T15:15:14;2.95;;;1.70;;